Time,TemperatureF,DewpointF,PressureIn,WindDirection,WindDirectionDegrees,WindSpeedMPH,WindSpeedGustMPH,Humidity,HourlyPrecipIn,Conditions,Clouds,dailyrainin,SoftwareType,DateUTC
2013-08-24 00:23:00,73.0,61.0,-100.00,North,10,11.0,18.0,68,-99.99,,,-99.99,,2013-08-24 05:23:00,
2013-08-24 00:53:00,71.0,61.0,-100.00,North,10,7.0,14.0,69,-99.99,,,-99.99,,2013-08-24 05:53:00,
2013-08-24 01:22:00,71.0,60.0,-100.00,North,10,7.0,11.0,70,-99.99,,,-99.99,,2013-08-24 06:22:00,
2013-08-24 01:52:00,70.0,60.0,-100.00,North,10,6.0,11.0,72,-99.99,,,-99.99,,2013-08-24 06:52:00,
2013-08-24 02:22:00,69.0,60.0,-100.00,NNE,15,4.0,7.0,73,-99.99,,,-99.99,,2013-08-24 07:22:00,
2013-08-24 02:53:00,68.0,60.0,-100.00,NNE,15,2.0,4.0,76,-99.99,,,-99.99,,2013-08-24 07:53:00,
2013-08-24 03:22:00,67.0,60.0,-100.00,NNE,15,2.0,4.0,78,-99.99,,,-99.99,,2013-08-24 08:22:00,
2013-08-24 03:52:00,66.0,60.0,-100.00,NNE,15,2.0,4.0,80,-99.99,,,-99.99,,2013-08-24 08:52:00,
2013-08-24 04:22:00,66.0,60.0,-100.00,NNE,20,2.0,4.0,83,-99.99,,,-99.99,,2013-08-24 09:22:00,
2013-08-24 04:53:00,65.0,60.0,-100.00,NNE,20,2.0,4.0,85,-99.99,,,-99.99,,2013-08-24 09:53:00,
2013-08-24 05:23:00,64.0,60.0,-100.00,NNE,25,1.0,2.0,87,-99.99,,,-99.99,,2013-08-24 10:23:00,
2013-08-24 05:53:00,64.0,61.0,-100.00,NNE,25,1.0,4.0,88,-99.99,,,-99.99,,2013-08-24 10:53:00,
2013-08-24 06:22:00,64.0,61.0,-100.00,NNE,30,1.0,3.0,88,-99.99,,,-99.99,,2013-08-24 11:22:00,
2013-08-24 06:52:00,64.0,61.0,-100.00,NE,35,3.0,5.0,89,-99.99,,,-99.99,,2013-08-24 11:52:00,
2013-08-24 07:21:00,65.0,62.0,-100.00,NNE,25,3.0,5.0,89,-99.99,,,-99.99,,2013-08-24 12:21:00,
2013-08-24 07:52:00,67.0,63.0,-100.00,NNE,25,5.0,10.0,88,-99.99,,,-99.99,,2013-08-24 12:52:00,
2013-08-24 08:22:00,69.0,64.0,-100.00,NE,35,5.0,9.0,82,-99.99,,,-99.99,,2013-08-24 13:22:00,
2013-08-24 08:52:00,73.0,64.0,-100.00,NNE,20,4.0,8.0,75,-99.99,,,-99.99,,2013-08-24 13:52:00,
2013-08-24 09:22:00,75.0,63.0,-100.00,NNE,15,6.0,13.0,68,-99.99,,,-99.99,,2013-08-24 14:22:00,
2013-08-24 09:52:00,77.0,64.0,-100.00,North,10,6.0,12.0,65,-99.99,,,-99.99,,2013-08-24 14:52:00,
2013-08-24 10:22:00,80.0,66.0,-100.00,North,10,8.0,11.0,62,-99.99,,,-99.99,,2013-08-24 15:22:00,
2013-08-24 10:54:00,81.0,66.0,-100.00,North,10,11.0,15.0,61,-99.99,,,-99.99,,2013-08-24 15:54:00,
2013-08-24 11:23:00,83.0,67.0,-100.00,North,5,5.0,13.0,60,-99.99,,,-99.99,,2013-08-24 16:23:00,
2013-08-24 11:53:00,84.0,68.0,-100.00,North,5,6.0,13.0,59,-99.99,,,-99.99,,2013-08-24 16:53:00,
2013-08-24 12:23:00,85.0,68.0,-100.00,North,5,9.0,14.0,56,-99.99,,,-99.99,,2013-08-24 17:23:00,
2013-08-24 12:52:00,85.0,67.0,-100.00,North,10,10.0,20.0,54,-99.99,,,-99.99,,2013-08-24 17:52:00,
2013-08-24 13:22:00,88.0,68.0,-100.00,North,5,9.0,14.0,52,-99.99,,,-99.99,,2013-08-24 18:22:00,
2013-08-24 13:53:00,88.0,67.0,-100.00,North,10,6.0,14.0,50,-99.99,,,-99.99,,2013-08-24 18:53:00,
2013-08-24 14:22:00,89.0,68.0,-100.00,North,5,6.0,15.0,49,-99.99,,,-99.99,,2013-08-24 19:22:00,
2013-08-24 14:52:00,89.0,66.0,-100.00,North,5,9.0,14.0,47,-99.99,,,-99.99,,2013-08-24 19:52:00,
2013-08-24 15:22:00,87.0,66.0,-100.00,North,5,8.0,15.0,50,-99.99,,,-99.99,,2013-08-24 20:22:00,
2013-08-24 15:52:00,89.0,66.0,-100.00,North,5,8.0,17.0,48,-99.99,,,-99.99,,2013-08-24 20:52:00,
2013-08-24 16:22:00,90.0,67.0,-100.00,North,10,5.0,14.0,47,-99.99,,,-99.99,,2013-08-24 21:22:00,
2013-08-24 16:55:00,88.0,67.0,-100.00,North,10,11.0,15.0,50,-99.99,,,-99.99,,2013-08-24 21:55:00,
2013-08-24 17:24:00,87.0,67.0,-100.00,North,10,9.0,15.0,51,-99.99,,,-99.99,,2013-08-24 22:24:00,
2013-08-24 17:53:00,86.0,67.0,-100.00,North,5,6.0,14.0,52,-99.99,,,-99.99,,2013-08-24 22:53:00,
2013-08-24 18:22:00,87.0,66.0,-100.00,North,5,6.0,15.0,51,-99.99,,,-99.99,,2013-08-24 23:22:00,
2013-08-24 18:53:00,86.0,66.0,-100.00,North,10,6.0,14.0,52,-99.99,,,-99.99,,2013-08-24 23:53:00,
2013-08-24 19:22:00,85.0,67.0,-100.00,North,10,4.0,14.0,54,-99.99,,,-99.99,,2013-08-25 00:22:00,
2013-08-24 19:52:00,84.0,67.0,-100.00,North,5,6.0,11.0,57,-99.99,,,-99.99,,2013-08-25 00:52:00,
2013-08-24 20:22:00,83.0,68.0,-100.00,North,10,6.0,11.0,61,-99.99,,,-99.99,,2013-08-25 01:22:00,
2013-08-24 20:52:00,82.0,68.0,-100.00,North,10,7.0,12.0,63,-99.99,,,-99.99,,2013-08-25 01:52:00,
2013-08-24 21:22:00,81.0,67.0,-100.00,North,10,9.0,12.0,64,-99.99,,,-99.99,,2013-08-25 02:22:00,
2013-08-24 21:52:00,80.0,68.0,-100.00,NNE,15,7.0,12.0,65,-99.99,,,-99.99,,2013-08-25 02:52:00,
2013-08-24 22:23:00,79.0,68.0,-100.00,NNE,20,6.0,9.0,69,-99.99,,,-99.99,,2013-08-25 03:23:00,
2013-08-24 22:54:00,79.0,69.0,-100.00,NNE,25,7.0,10.0,72,-99.99,,,-99.99,,2013-08-25 03:54:00,
2013-08-24 23:02:00,-999.0,-99.9,-100.00,NNE,25,6.0,9.0,-999,-99.99,,,-99.99,,2013-08-25 04:02:00,
2013-08-24 23:25:00,78.0,68.0,-100.00,NNE,25,6.0,12.0,72,-99.99,,,-99.99,,2013-08-25 04:25:00,
2013-08-24 23:54:00,78.0,68.0,-100.00,NNE,25,8.0,14.0,73,-99.99,,,-99.99,,2013-08-25 04:54:00,